1892 Tropical Storm NOT_NAMED (1892267N17277)


IBTrACS version v04r00. Visit IBTrACS website for data access.
Please direct all questions to the IBTrACS Q and A forum

Storm track - Intensity - Wind Radii - Intensity Data - Source Data - All data

Summary Information

Storm ID 1892267N17277
Start Sep 23 06Z
Landfall Sep 24 15Z, Oct 2 03Z
Max Intensity 55 kt (Sep 29 18Z)
End Oct 3 12Z
ATCF IDs
Track status Best track data.

Storm track plot

Map of storm track

Intensity plots

Map of storm track

Radial wind information

No radial wind information for this storm


Position and Intensity Table

BASIN ISO_TIME_________ NATURE LAT LON MLC WIND
degrees north degrees east kts
NA 1892-09-23 06:00:00 TS 16.80 -82.60 30
NA 09:00:00 TS 17.04 -83.05 32
NA 12:00:00 TS 17.30 -83.50 35
NA 15:00:00 TS 17.60 -83.94 37
NA 18:00:00 TS 17.90 -84.40 40
NA 21:00:00 TS 18.15 -84.90 42
NA 1892-09-24 00:00:00 TS 18.40 -85.40 45
NA 03:00:00 TS 18.70 -85.85 45
NA 06:00:00 TS 19.00 -86.30 45
NA 09:00:00 TS 19.26 -86.80 45
NA 12:00:00 TS 19.50 -87.30 45
NA 15:00:00 TS 19.71 -87.75 37
NA 18:00:00 TS 19.90 -88.20 30
NA 21:00:00 TS 20.10 -88.70 30
NA 1892-09-25 00:00:00 TS 20.30 -89.20 30
NA 03:00:00 TS 20.51 -89.66 30
NA 06:00:00 TS 20.70 -90.10 30
NA 09:00:00 TS 20.92 -90.55 30
NA 12:00:00 TS 21.00 -91.00 30
NA 15:00:00 TS 20.80 -91.46 32
NA 18:00:00 TS 20.50 -91.90 35
NA 21:00:00 TS 20.30 -92.33 35
NA 1892-09-26 00:00:00 TS 20.10 -92.70 35
NA 03:00:00 TS 19.85 -92.97 35
NA 06:00:00 TS 19.60 -93.20 35
NA 09:00:00 TS 19.38 -93.43 35
NA 12:00:00 TS 19.20 -93.70 35
NA 15:00:00 TS 19.05 -94.10 37
NA 18:00:00 TS 19.00 -94.50 40
NA 21:00:00 TS 19.09 -94.79 40
NA 1892-09-27 00:00:00 TS 19.30 -95.00 40
NA 03:00:00 TS 19.58 -95.17 40
NA 06:00:00 TS 19.90 -95.30 40
NA 09:00:00 TS 20.21 -95.42 40
NA 12:00:00 TS 20.50 -95.50 40
NA 15:00:00 TS 20.72 -95.52 42
NA 18:00:00 TS 20.90 -95.50 45
NA 21:00:00 TS 21.06 -95.49 45
NA 1892-09-28 00:00:00 TS 21.20 -95.50 45
NA 03:00:00 TS 21.35 -95.55 45
NA 06:00:00 TS 21.50 -95.60 45
NA 09:00:00 TS 21.65 -95.60 45
NA 12:00:00 TS 21.80 -95.60 45
NA 15:00:00 TS 21.95 -95.64 47
NA 18:00:00 TS 22.10 -95.70 50
NA 21:00:00 TS 22.25 -95.75 50
NA 1892-09-29 00:00:00 TS 22.40 -95.80 50
NA 03:00:00 TS 22.55 -95.85 50
NA 06:00:00 TS 22.70 -95.90 50
NA 09:00:00 TS 22.84 -95.96 50
NA 12:00:00 TS 23.00 -96.00 50
NA 15:00:00 TS 23.23 -96.00 52
NA 18:00:00 TS 23.50 -96.00 55
NA 21:00:00 TS 23.75 -96.05 55
NA 1892-09-30 00:00:00 TS 24.00 -96.10 55
NA 03:00:00 TS 24.25 -96.11 55
NA 06:00:00 TS 24.50 -96.10 55
NA 09:00:00 TS 24.75 -96.09 55
NA 12:00:00 TS 25.00 -96.10 55
NA 15:00:00 TS 25.25 -96.15 55
NA 18:00:00 TS 25.50 -96.20 55
NA 21:00:00 TS 25.75 -96.21 55
NA 1892-10-01 00:00:00 TS 26.00 -96.20 55
NA 03:00:00 TS 26.25 -96.20 55
NA 06:00:00 TS 26.50 -96.20 55
NA 09:00:00 TS 26.75 -96.19 55
NA 12:00:00 TS 27.00 -96.20 55
NA 15:00:00 TS 27.24 -96.24 55
NA 18:00:00 TS 27.50 -96.30 55
NA 21:00:00 TS 27.87 -96.35 55
NA 1892-10-02 00:00:00 TS 28.20 -96.40 55
NA 03:00:00 TS 28.38 -96.38 52
NA 06:00:00 TS 28.50 -96.50 50
NA 09:00:00 TS 28.66 -97.00 45
NA 12:00:00 TS 28.80 -97.60 40
NA 15:00:00 TS 28.91 -97.99 35
NA 18:00:00 TS 29.00 -98.30 30
NA 21:00:00 TS 29.10 -98.60 30
NA 1892-10-03 00:00:00 TS 29.20 -98.90 30
NA 03:00:00 TS 29.30 -99.25 30
NA 06:00:00 TS 29.40 -99.60 30
NA 09:00:00 TS 29.50 -99.91 27
NA 12:00:00 TS 29.60 -100.20 25

Source Information

Agency Information
USA
TOKYO
CMA
HKO
NEWDELHI
REUNION
BOM
NADI
WELLINGTON
DS824
TD9636
TD9635
NEUMANN
MLC

All available IBTrACS Data

SEASON BASIN SUBBASIN ISO_TIME_________ NATURE LAT LON DIST2LAND LANDFALL IFLAG USA SSHS MLC LAT MLC LON MLC CLASS MLC WIND STORM SPEED STORM DIR
Year degrees north degrees east km km 1 degrees north degrees east kts kts degrees
1892 NA CS 1892-09-23 06:00:00 TS 16.80 -82.60 188 183 _____________O -1 16.80 -82.60 TD 30 10 299
1892 NA CS 09:00:00 TS 17.04 -83.05 183 180 _____________P -1 17.04 -83.05 TD 32 10 300
1892 NA CS 12:00:00 TS 17.30 -83.50 188 183 _____________O -1 17.30 -83.50 TS 35 10 303
1892 NA CS 15:00:00 TS 17.60 -83.94 205 203 _____________P -1 17.60 -83.94 TS 37 10 305
1892 NA CS 18:00:00 TS 17.90 -84.40 226 224 _____________O -1 17.90 -84.40 TS 40 11 301
1892 NA CS 21:00:00 TS 18.15 -84.90 246 238 _____________P -1 18.15 -84.90 TS 42 11 298
1892 NA CS 1892-09-24 00:00:00 TS 18.40 -85.40 238 187 _____________O -1 18.40 -85.40 TS 45 11 301
1892 NA CS 03:00:00 TS 18.70 -85.85 177 128 _____________P -1 18.70 -85.85 TS 45 10 305
1892 NA CS 06:00:00 TS 19.00 -86.30 128 66 _____________O -1 19.00 -86.30 TS 45 11 302
1892 NA CS 09:00:00 TS 19.26 -86.80 66 10 _____________P -1 19.26 -86.80 TS 45 11 298
1892 NA CS 12:00:00 TS 19.50 -87.30 10 0 _____________O -1 19.50 -87.30 TS 45 10 296
1892 NA CS 15:00:00 TS 19.71 -87.75 0 0 _____________P -1 19.71 -87.75 TS 37 9 295
1892 NA NA 18:00:00 TS 19.90 -88.20 0 0 _____________O -1 19.90 -88.20 TD 30 10 294
1892 NA NA 21:00:00 TS 20.10 -88.70 0 0 _____________P -1 20.10 -88.70 TD 30 10 293
1892 NA NA 1892-09-25 00:00:00 TS 20.30 -89.20 0 0 _____________O -1 20.30 -89.20 TD 30 10 294
1892 NA NA 03:00:00 TS 20.51 -89.66 0 0 _____________P -1 20.51 -89.66 TD 30 9 295
1892 NA NA 06:00:00 TS 20.70 -90.10 0 0 _____________O -1 20.70 -90.10 TD 30 9 296
1892 NA GM 09:00:00 TS 20.92 -90.55 15 15 _____________P -1 20.92 -90.55 TD 30 9 290
1892 NA GM 12:00:00 TS 21.00 -91.00 66 66 _____________O -1 21.00 -91.00 TD 30 9 262
1892 NA GM 15:00:00 TS 20.80 -91.46 109 109 _____________P -1 20.80 -91.46 TD 32 10 239
1892 NA GM 18:00:00 TS 20.50 -91.90 145 145 _____________O -1 20.50 -91.90 TS 35 10 238
1892 NA GM 21:00:00 TS 20.30 -92.33 177 167 _____________P -1 20.30 -92.33 TS 35 9 242
1892 NA GM 1892-09-26 00:00:00 TS 20.10 -92.70 167 146 _____________O -1 20.10 -92.70 TS 35 8 233
1892 NA GM 03:00:00 TS 19.85 -92.97 137 123 _____________P -1 19.85 -92.97 TS 35 7 223
1892 NA GM 06:00:00 TS 19.60 -93.20 123 109 _____________O -1 19.60 -93.20 TS 35 6 222
1892 NA GM 09:00:00 TS 19.38 -93.43 115 100 _____________P -1 19.38 -93.43 TS 35 6 230
1892 NA GM 12:00:00 TS 19.20 -93.70 100 89 _____________O -1 19.20 -93.70 TS 35 7 243
1892 NA GM 15:00:00 TS 19.05 -94.10 81 69 _____________P -1 19.05 -94.10 TS 37 8 255
1892 NA GM 18:00:00 TS 19.00 -94.50 69 54 _____________O -1 19.00 -94.50 TS 40 7 274
1892 NA GM 21:00:00 TS 19.09 -94.79 59 54 _____________P -1 19.09 -94.79 TS 40 6 302
1892 NA GM 1892-09-27 00:00:00 TS 19.30 -95.00 70 70 _____________O -1 19.30 -95.00 TS 40 6 323
1892 NA GM 03:00:00 TS 19.58 -95.17 100 100 _____________P -1 19.58 -95.17 TS 40 7 335
1892 NA GM 06:00:00 TS 19.90 -95.30 114 105 _____________O -1 19.90 -95.30 TS 40 7 340
1892 NA GM 09:00:00 TS 20.21 -95.42 109 104 _____________P -1 20.21 -95.42 TS 40 6 342
1892 NA GM 12:00:00 TS 20.50 -95.50 115 115 _____________O -1 20.50 -95.50 TS 40 5 350
1892 NA GM 15:00:00 TS 20.72 -95.52 129 129 _____________P -1 20.72 -95.52 TS 42 4 0
1892 NA GM 18:00:00 TS 20.90 -95.50 144 144 _____________O -1 20.90 -95.50 TS 45 3 4
1892 NA GM 21:00:00 TS 21.06 -95.49 160 160 _____________P -1 21.06 -95.49 TS 45 3 0
1892 NA GM 1892-09-28 00:00:00 TS 21.20 -95.50 167 167 _____________O -1 21.20 -95.50 TS 45 3 348
1892 NA GM 03:00:00 TS 21.35 -95.55 182 175 _____________P -1 21.35 -95.55 TS 45 3 343
1892 NA GM 06:00:00 TS 21.50 -95.60 176 175 _____________O -1 21.50 -95.60 TS 45 3 355
1892 NA GM 09:00:00 TS 21.65 -95.60 176 175 _____________P -1 21.65 -95.60 TS 45 3 0
1892 NA GM 12:00:00 TS 21.80 -95.60 177 177 _____________O -1 21.80 -95.60 TS 45 3 355
1892 NA GM 15:00:00 TS 21.95 -95.64 181 171 _____________P -1 21.95 -95.64 TS 47 3 344
1892 NA GM 18:00:00 TS 22.10 -95.70 174 174 _____________O -1 22.10 -95.70 TS 50 3 343
1892 NA GM 21:00:00 TS 22.25 -95.75 173 173 _____________P -1 22.25 -95.75 TS 50 3 344
1892 NA GM 1892-09-29 00:00:00 TS 22.40 -95.80 178 178 _____________O -1 22.40 -95.80 TS 50 3 344
1892 NA GM 03:00:00 TS 22.55 -95.85 182 182 _____________P -1 22.55 -95.85 TS 50 3 344
1892 NA GM 06:00:00 TS 22.70 -95.90 189 184 _____________O -1 22.70 -95.90 TS 50 3 341
1892 NA GM 09:00:00 TS 22.84 -95.96 184 184 _____________P -1 22.84 -95.96 TS 50 3 344
1892 NA GM 12:00:00 TS 23.00 -96.00 184 183 _____________O -1 23.00 -96.00 TS 50 4 355
1892 NA GM 15:00:00 TS 23.23 -96.00 183 183 _____________P -1 23.23 -96.00 TS 52 5 2
1892 NA GM 18:00:00 TS 23.50 -96.00 183 183 _____________O -1 23.50 -96.00 TS 55 5 357
1892 NA GM 21:00:00 TS 23.75 -96.05 183 171 _____________P -1 23.75 -96.05 TS 55 5 350
1892 NA GM 1892-09-30 00:00:00 TS 24.00 -96.10 171 165 _____________O -1 24.00 -96.10 TS 55 5 353
1892 NA GM 03:00:00 TS 24.25 -96.11 161 151 _____________P -1 24.25 -96.11 TS 55 5 2
1892 NA GM 06:00:00 TS 24.50 -96.10 151 142 _____________O -1 24.50 -96.10 TS 55 5 2
1892 NA GM 09:00:00 TS 24.75 -96.09 138 128 _____________P -1 24.75 -96.09 TS 55 5 2
1892 NA GM 12:00:00 TS 25.00 -96.10 128 119 _____________O -1 25.00 -96.10 TS 55 5 353
1892 NA GM 15:00:00 TS 25.25 -96.15 115 100 _____________P -1 25.25 -96.15 TS 55 5 350
1892 NA GM 18:00:00 TS 25.50 -96.20 100 96 _____________O -1 25.50 -96.20 TS 55 5 353
1892 NA GM 21:00:00 TS 25.75 -96.21 92 89 _____________P -1 25.75 -96.21 TS 55 5 2
1892 NA GM 1892-10-01 00:00:00 TS 26.00 -96.20 89 89 _____________O -1 26.00 -96.20 TS 55 5 2
1892 NA GM 03:00:00 TS 26.25 -96.20 95 92 _____________P -1 26.25 -96.20 TS 55 5 2
1892 NA GM 06:00:00 TS 26.50 -96.20 105 105 _____________O -1 26.50 -96.20 TS 55 5 2
1892 NA GM 09:00:00 TS 26.75 -96.19 118 118 _____________P -1 26.75 -96.19 TS 55 5 2
1892 NA GM 12:00:00 TS 27.00 -96.20 122 113 _____________O -1 27.00 -96.20 TS 55 5 356
1892 NA GM 15:00:00 TS 27.24 -96.24 113 89 _____________P -1 27.24 -96.24 TS 55 5 350
1892 NA GM 18:00:00 TS 27.50 -96.30 89 66 _____________O -1 27.50 -96.30 TS 55 6 351
1892 NA GM 21:00:00 TS 27.87 -96.35 56 22 _____________P -1 27.87 -96.35 TS 55 7 353
1892 NA GM 1892-10-02 00:00:00 TS 28.20 -96.40 22 0 _____________O -1 28.20 -96.40 TS 55 5 0
1892 NA GM 03:00:00 TS 28.38 -96.38 0 0 _____________P -1 28.38 -96.38 TS 52 3 344
1892 NA GM 06:00:00 TS 28.50 -96.50 0 0 _____________O -1 28.50 -96.50 TS 50 6 297
1892 NA NA 09:00:00 TS 28.66 -97.00 0 0 _____________P -1 28.66 -97.00 TS 45 10 287
1892 NA NA 12:00:00 TS 28.80 -97.60 0 0 _____________O -1 28.80 -97.60 TS 40 9 286
1892 NA NA 15:00:00 TS 28.91 -97.99 0 0 _____________P -1 28.91 -97.99 TS 35 6 288
1892 NA NA 18:00:00 TS 29.00 -98.30 0 0 _____________O -1 29.00 -98.30 TD 30 6 290
1892 NA NA 21:00:00 TS 29.10 -98.60 0 0 _____________P -1 29.10 -98.60 TD 30 6 291
1892 NA NA 1892-10-03 00:00:00 TS 29.20 -98.90 0 0 _____________O -1 29.20 -98.90 TD 30 6 289
1892 NA NA 03:00:00 TS 29.30 -99.25 0 0 _____________P -1 29.30 -99.25 TD 30 6 288
1892 NA NA 06:00:00 TS 29.40 -99.60 0 0 _____________O -1 29.40 -99.60 TD 30 6 289
1892 NA NA 09:00:00 TS 29.50 -99.91 0 0 _____________P -1 29.50 -99.91 TD 27 6 291
1892 NA NA 12:00:00 TS 29.60 -100.20 0 _____________O -1 29.60 -100.20 TD 25 5 292